Time;durP1;ratioP1;P1;durP2;ratioP2;P2;SDS_P1;SDS_P2;PMS_P1;PMS_P2;Temp;Humidity;BMP_temperature;BMP_pressure;BME280_temperature;BME280_humidity;BME280_pressure;Samples;Min_cycle;Max_cycle;Signal;HPM_P1;HPM_P2
2022/09/18 00:01:28;;;;;;;6.07;2.17;;;;;;;-145.69;100.00;72172.53;5092592;28;20202;-76
2022/09/18 00:03:56;;;;;;;13.60;2.20;;;;;;;-145.69;100.00;72170.56;5084038;28;20578;-77
2022/09/18 00:06:26;;;;;;;6.13;2.43;;;;;;;-145.69;100.00;72170.56;5072585;28;20195;-76
2022/09/18 00:08:54;;;;;;;3.97;2.30;;;;;;;-145.69;100.00;72170.56;5072264;28;20207;-78
2022/09/18 00:11:24;;;;;;;4.50;1.97;;;;;;;-145.69;100.00;72170.56;5072202;28;20203;-77
2022/09/18 00:13:52;;;;;;;15.45;2.28;;;;;;;-145.69;100.00;72170.56;5072081;28;20973;-80
2022/09/18 00:16:20;;;;;;;13.27;2.33;;;;;;;-145.69;100.00;72174.53;5080907;28;20202;-77
2022/09/18 00:18:47;;;;;;;17.23;2.30;;;;;;;-145.69;100.00;72170.56;5092730;28;20284;-75
2022/09/18 00:21:17;;;;;;;7.17;2.00;;;;;;;-145.69;100.00;72162.59;5092410;28;20248;-75
2022/09/18 00:23:45;;;;;;;6.13;2.10;;;;;;;-145.69;100.00;72162.59;5096456;28;20206;-75
2022/09/18 00:26:14;;;;;;;6.53;1.70;;;;;;;-145.69;100.00;72178.53;5096087;28;20671;-76
2022/09/18 00:28:40;;;;;;;9.67;2.00;;;;;;;-145.69;100.00;72168.56;5085245;28;20199;-76
2022/09/18 00:31:08;;;;;;;3.90;1.77;;;;;;;-145.69;100.00;72166.56;5075738;28;20199;-76
2022/09/18 00:33:36;;;;;;;10.00;1.70;;;;;;;-145.69;100.00;72168.56;5075692;28;20227;-76
2022/09/18 00:36:04;;;;;;;7.07;2.17;;;;;;;-145.69;100.00;72166.56;5075630;28;20229;-76
2022/09/18 00:38:32;;;;;;;6.47;1.60;;;;;;;-145.69;100.00;72164.59;5075465;28;20199;-77
2022/09/18 00:41:01;;;;;;;3.83;1.60;;;;;;;-145.69;100.00;72170.56;5089882;28;20194;-76
2022/09/18 00:43:30;;;;;;;8.93;1.70;;;;;;;-145.69;100.00;72170.56;5096080;28;20661;-77
2022/09/18 00:45:58;;;;;;;7.03;1.80;;;;;;;-145.69;100.00;72162.59;5095904;28;20201;-76
2022/09/18 00:48:34;;;;;;;7.57;2.03;;;;;;;-145.69;100.00;72164.59;5095587;28;20198;-77
2022/09/18 00:51:01;;;;;;;10.83;1.80;;;;;;;-145.69;100.00;72158.63;5095675;28;20198;-76
2022/09/18 00:53:28;;;;;;;6.63;1.80;;;;;;;-145.69;100.00;72158.63;5077821;28;20222;-77
2022/09/18 00:55:58;;;;;;;3.50;1.83;;;;;;;-145.69;100.00;72150.66;5075045;28;20667;-76
2022/09/18 00:58:26;;;;;;;6.53;1.50;;;;;;;-145.69;100.00;72150.66;5075165;28;20206;-77
2022/09/18 01:00:54;;;;;;;4.70;1.57;;;;;;;-145.69;100.00;72146.69;5075058;28;20203;-75
2022/09/18 01:03:20;;;;;;;3.70;1.67;;;;;;;-145.69;100.00;72146.69;5075355;28;20206;-76
2022/09/18 01:05:58;;;;;;;6.97;1.67;;;;;;;-145.69;100.00;72148.66;5093111;28;20190;-77
2022/09/18 01:08:36;;;;;;;6.40;1.70;;;;;;;-145.69;100.00;72154.63;5094946;28;20288;-77
2022/09/18 01:11:25;;;;;;;7.07;2.17;;;;;;;-145.69;100.00;72160.59;5095499;28;20205;-76
2022/09/18 01:14:08;;;;;;;12.67;1.77;;;;;;;-145.69;100.00;72156.63;5095354;28;20248;-76
2022/09/18 01:16:43;;;;;;;10.33;1.87;;;;;;;-145.69;100.00;72160.59;5085336;28;20584;-76
2022/09/18 01:19:22;;;;;;;4.33;2.10;;;;;;;-145.69;100.00;72158.63;5073935;28;20201;-77
2022/09/18 01:22:00;;;;;;;4.67;1.70;;;;;;;-145.69;100.00;72158.63;5075028;28;20202;-76
2022/09/18 01:24:40;;;;;;;5.87;1.60;;;;;;;-145.69;100.00;72162.59;5074715;28;20240;-77
2022/09/18 01:27:10;;;;;;;5.67;1.40;;;;;;;-145.69;100.00;72162.59;5074544;28;20234;-77
2022/09/18 01:29:47;;;;;;;6.10;1.83;;;;;;;-145.69;100.00;72166.56;5092060;28;20201;-76
2022/09/18 01:32:22;;;;;;;10.77;1.83;;;;;;;-145.69;100.00;72166.56;5094971;28;20250;-76
2022/09/18 01:34:58;;;;;;;7.30;3.47;;;;;;;-145.69;100.00;72160.59;5094061;28;20252;-77
2022/09/18 01:37:31;;;;;;;6.70;1.83;;;;;;;-145.69;100.00;72158.63;5094472;28;20201;-76
2022/09/18 01:40:04;;;;;;;6.60;1.93;;;;;;;-145.69;100.00;72162.59;5093407;28;20194;-76
2022/09/18 01:42:32;;;;;;;5.53;1.80;;;;;;;-145.69;100.00;72158.63;5074444;28;20203;-77
2022/09/18 01:45:05;;;;;;;4.03;2.00;;;;;;;-145.69;100.00;72154.63;5074349;28;20320;-76
2022/09/18 01:47:36;;;;;;;4.07;1.80;;;;;;;-145.69;100.00;72156.63;5074453;28;20203;-76
2022/09/18 01:50:04;;;;;;;5.40;1.73;;;;;;;-145.69;100.00;72154.63;5073598;28;20233;-76
2022/09/18 01:52:33;;;;;;;5.47;1.90;;;;;;;-145.69;100.00;72154.63;5079324;28;20201;-76
2022/09/18 01:55:05;;;;;;;4.23;1.83;;;;;;;-145.69;100.00;72154.63;5092763;28;20229;-77
2022/09/18 01:57:38;;;;;;;3.13;1.63;;;;;;;-145.69;100.00;72148.66;5094445;28;20560;-76
2022/09/18 02:00:08;;;;;;;5.23;2.07;;;;;;;-145.69;100.00;72142.69;5093898;28;20657;-77
2022/09/18 02:02:41;;;;;;;7.90;1.87;;;;;;;-145.69;100.00;72150.66;5094203;28;20619;-75
2022/09/18 02:05:09;;;;;;;8.50;1.67;;;;;;;-145.69;100.00;72144.69;5080079;28;20205;-77
2022/09/18 02:07:42;;;;;;;7.77;1.70;;;;;;;-145.69;100.00;72150.66;5074034;28;20203;-76
2022/09/18 02:10:08;;;;;;;8.50;1.92;;;;;;;-145.69;100.00;72148.66;5073015;28;20442;-75
2022/09/18 02:12:39;;;;;;;10.73;1.83;;;;;;;-145.69;100.00;72150.66;5073747;28;20665;-76
2022/09/18 02:15:12;;;;;;;5.80;1.83;;;;;;;-145.69;100.00;72146.69;5073607;28;20226;-77
2022/09/18 02:17:46;;;;;;;13.20;1.90;;;;;;;-145.69;100.00;72150.66;5090752;28;20204;-76
2022/09/18 02:20:19;;;;;;;6.43;1.77;;;;;;;-145.69;100.00;72152.66;5094064;28;20204;-75
2022/09/18 02:22:48;;;;;;;7.40;1.77;;;;;;;-145.69;100.00;72150.66;5094070;28;20202;-76
2022/09/18 02:25:20;;;;;;;7.50;2.30;;;;;;;-145.69;100.00;72160.59;5093746;28;20205;-75
2022/09/18 02:27:48;;;;;;;6.43;2.20;;;;;;;-145.69;100.00;72164.59;5093340;28;20564;-76
2022/09/18 02:30:16;;;;;;;8.63;1.77;;;;;;;-145.69;100.00;72162.59;5073717;28;20205;-76
2022/09/18 02:32:42;;;;;;;10.67;1.80;;;;;;;-145.69;100.00;72170.56;5073569;28;20222;-76
2022/09/18 02:35:11;;;;;;;8.50;2.07;;;;;;;-145.69;100.00;72170.56;5072963;28;20227;-77
2022/09/18 02:37:49;;;;;;;7.77;2.30;;;;;;;-145.69;100.00;72166.56;5073422;28;20207;-76
2022/09/18 02:40:30;;;;;;;6.90;1.97;;;;;;;-145.69;100.00;72158.63;5078395;28;20540;-78
2022/09/18 02:43:26;;;;;;;5.63;2.10;;;;;;;-145.69;100.00;72166.56;5093751;28;20206;-76
2022/09/18 02:46:03;;;;;;;4.43;1.77;;;;;;;-145.69;100.00;72154.63;5080056;28;20707;-76
2022/09/18 02:48:46;;;;;;;10.27;2.03;;;;;;;-145.69;100.00;72154.63;5073379;28;20194;-76
2022/09/18 02:51:22;;;;;;;9.20;2.13;;;;;;;-145.69;100.00;72156.63;5072761;28;20473;-76
2022/09/18 02:53:57;;;;;;;3.70;1.73;;;;;;;-145.69;100.00;72154.63;5085347;28;20206;-76
2022/09/18 02:56:33;;;;;;;8.80;2.50;;;;;;;-145.69;100.00;72154.63;5072631;28;20648;-76
2022/09/18 02:59:06;;;;;;;8.57;2.23;;;;;;;-145.69;100.00;72156.63;5072910;28;20209;-76
2022/09/18 03:01:34;;;;;;;5.23;1.83;;;;;;;-145.69;100.00;72158.63;5073310;28;20211;-76
2022/09/18 03:04:05;;;;;;;7.90;1.70;;;;;;;-145.69;100.00;72150.66;5079579;28;20219;-76
2022/09/18 03:06:32;;;;;;;6.27;1.53;;;;;;;-145.69;100.00;72152.66;5092887;28;20210;-76
2022/09/18 03:08:58;;;;;;;4.40;1.40;;;;;;;-145.69;100.00;72150.66;5093097;28;20208;-76
2022/09/18 03:11:25;;;;;;;12.37;1.30;;;;;;;-145.69;100.00;72148.66;5093550;28;20202;-76
2022/09/18 03:13:51;;;;;;;9.53;1.23;;;;;;;-145.69;100.00;72142.69;5092840;28;20224;-76
2022/09/18 03:16:18;;;;;;;6.53;1.30;;;;;;;-145.69;100.00;72144.69;5083559;28;20202;-75
2022/09/18 03:18:45;;;;;;;8.43;1.50;;;;;;;-145.69;100.00;72138.72;5072818;28;20203;-76
2022/09/18 03:21:12;;;;;;;5.50;1.20;;;;;;;-145.69;100.00;72140.69;5068177;28;20206;-76
2022/09/18 03:23:38;;;;;;;5.30;1.93;;;;;;;-145.69;100.00;72136.72;5072643;28;20653;-76
2022/09/18 03:26:05;;;;;;;5.77;1.50;;;;;;;-145.69;100.00;72132.75;5072687;28;20206;-76
2022/09/18 03:28:32;;;;;;;6.27;1.10;;;;;;;-145.69;100.00;72138.72;5082887;28;20201;-76
2022/09/18 03:30:58;;;;;;;4.37;1.43;;;;;;;-145.69;100.00;72130.75;5093027;28;20202;-78
2022/09/18 03:33:25;;;;;;;6.67;1.07;;;;;;;-145.69;100.00;72132.75;5092672;28;20213;-76
2022/09/18 03:35:53;;;;;;;9.03;1.43;;;;;;;-145.69;100.00;72134.72;5076835;28;20581;-75
2022/09/18 03:38:19;;;;;;;5.57;1.37;;;;;;;-145.69;100.00;72130.75;5072274;28;20199;-76
2022/09/18 03:40:46;;;;;;;4.30;1.10;;;;;;;-145.69;100.00;72130.75;5072508;28;20665;-76
2022/09/18 03:43:12;;;;;;;6.43;1.53;;;;;;;-145.69;100.00;72130.75;5072373;28;20213;-76
2022/09/18 03:45:39;;;;;;;7.87;1.70;;;;;;;-145.69;100.00;72128.75;5085112;28;20230;-76
2022/09/18 03:48:06;;;;;;;5.63;1.23;;;;;;;-145.69;100.00;72126.78;5092885;28;20214;-76
2022/09/18 03:50:32;;;;;;;4.70;1.30;;;;;;;-145.69;100.00;72130.75;5091918;28;20222;-78
2022/09/18 03:53:00;;;;;;;7.67;1.40;;;;;;;-145.69;100.00;72130.75;5092731;28;20206;-76
2022/09/18 03:55:27;;;;;;;6.57;1.30;;;;;;;-145.69;100.00;72134.72;5092551;28;20257;-76
2022/09/18 03:57:53;;;;;;;9.27;1.33;;;;;;;-145.69;100.00;72140.69;5079481;28;20226;-76
2022/09/18 04:00:20;;;;;;;5.07;1.47;;;;;;;-145.69;100.00;72136.72;5095447;28;20194;-77
2022/09/18 04:02:46;;;;;;;7.33;1.30;;;;;;;-145.69;100.00;72126.78;5096800;28;20205;-76
2022/09/18 04:05:14;;;;;;;3.93;1.33;;;;;;;-145.69;100.00;72130.75;5096879;28;20205;-77
2022/09/18 04:07:40;;;;;;;3.47;1.17;;;;;;;-145.69;100.00;72134.72;5095690;28;20202;-77
2022/09/18 04:10:09;;;;;;;4.30;1.20;;;;;;;-145.69;100.00;72128.75;5078937;28;20195;-77
2022/09/18 04:12:35;;;;;;;6.07;1.30;;;;;;;-145.69;100.00;72132.75;5076167;28;20202;-78
2022/09/18 04:15:02;;;;;;;3.30;1.30;;;;;;;-145.69;100.00;72134.72;5075903;28;20230;-76
2022/09/18 04:17:28;;;;;;;4.27;1.07;;;;;;;-145.69;100.00;72138.72;5076186;28;20206;-77
2022/09/18 04:19:54;;;;;;;4.33;1.20;;;;;;;-145.69;100.00;72138.72;5075550;28;20569;-77
2022/09/18 04:22:21;;;;;;;7.87;1.50;;;;;;;-145.69;100.00;72142.69;5095257;28;20219;-77
2022/09/18 04:24:49;;;;;;;11.30;1.40;;;;;;;-145.69;100.00;72142.69;5095927;28;20233;-77
2022/09/18 04:27:17;;;;;;;6.43;1.47;;;;;;;-145.69;100.00;72144.69;5096190;28;20208;-76
2022/09/18 04:29:43;;;;;;;7.23;1.27;;;;;;;-145.69;100.00;72136.72;5096206;28;20202;-76
2022/09/18 04:32:10;;;;;;;4.10;1.17;;;;;;;-145.69;100.00;72144.69;5093927;28;20582;-76
2022/09/18 04:34:36;;;;;;;5.43;1.40;;;;;;;-145.69;100.00;72150.66;5075207;28;20230;-76
2022/09/18 04:37:03;;;;;;;6.53;1.20;;;;;;;-145.69;100.00;72148.66;5075583;28;20206;-76
2022/09/18 04:39:31;;;;;;;3.70;1.07;;;;;;;-145.69;100.00;72150.66;5075825;28;20199;-76
2022/09/18 04:41:58;;;;;;;3.00;1.40;;;;;;;-145.69;100.00;72148.66;5075466;28;20201;-76
2022/09/18 04:44:25;;;;;;;8.30;1.53;;;;;;;-145.69;100.00;72152.66;5081025;28;20190;-77
2022/09/18 04:46:52;;;;;;;3.97;1.40;;;;;;;-145.69;100.00;72150.66;5095895;28;20213;-76
2022/09/18 04:49:18;;;;;;;6.60;2.03;;;;;;;-145.69;100.00;72148.66;5095399;28;20712;-76
2022/09/18 04:51:45;;;;;;;4.60;1.53;;;;;;;-145.69;100.00;72158.63;5095037;28;20201;-78
2022/09/18 04:54:12;;;;;;;3.30;1.20;;;;;;;-145.69;100.00;72162.59;5095689;28;20202;-77
2022/09/18 04:56:39;;;;;;;8.17;1.63;;;;;;;-145.69;100.00;72162.59;5088919;28;20269;-76
2022/09/18 04:59:06;;;;;;;12.70;2.10;;;;;;;-145.69;100.00;72156.63;5075305;28;20290;-76
2022/09/18 05:01:33;;;;;;;6.63;1.33;;;;;;;-145.69;100.00;72162.59;5075133;28;20680;-77
2022/09/18 05:04:00;;;;;;;7.30;1.47;;;;;;;-145.69;100.00;72162.59;5075412;28;20202;-76
2022/09/18 05:06:27;;;;;;;5.37;1.70;;;;;;;-145.69;100.00;72170.56;5075138;28;20375;-77
2022/09/18 05:08:53;;;;;;;5.27;1.33;;;;;;;-145.69;100.00;72170.56;5081213;28;20205;-75
2022/09/18 05:11:20;;;;;;;4.60;1.60;;;;;;;-145.69;100.00;72170.56;5095380;28;20209;-77
2022/09/18 05:13:47;;;;;;;10.50;2.00;;;;;;;-145.69;100.00;72182.50;5095303;28;20241;-77
2022/09/18 05:16:14;;;;;;;8.03;1.30;;;;;;;-145.69;100.00;72184.50;5089996;28;20590;-76
2022/09/18 05:18:42;;;;;;;3.57;1.67;;;;;;;-145.69;100.00;72170.56;5055469;28;20205;-76
2022/09/18 05:21:09;;;;;;;4.83;1.60;;;;;;;-145.69;100.00;72180.50;5075913;28;20194;-77
2022/09/18 05:23:37;;;;;;;4.37;1.67;;;;;;;-145.69;100.00;72172.53;5095036;28;20210;-77
2022/09/18 05:26:04;;;;;;;3.47;2.00;;;;;;;-145.69;100.00;72174.53;5095044;28;20683;-76
2022/09/18 05:28:30;;;;;;;9.23;1.90;;;;;;;-145.69;100.00;72172.53;5095054;28;20201;-77
2022/09/18 05:30:58;;;;;;;8.93;2.40;;;;;;;-145.69;100.00;72170.56;5094287;28;20194;-76
2022/09/18 05:33:25;;;;;;;9.93;2.13;;;;;;;-145.69;100.00;72166.56;5081753;28;20615;-77
2022/09/18 05:35:55;;;;;;;11.60;2.00;;;;;;;-145.69;100.00;72162.59;5074802;28;20231;-76
2022/09/18 05:38:22;;;;;;;5.57;1.70;;;;;;;-145.69;100.00;72156.63;5073707;28;20226;-76
2022/09/18 05:40:48;;;;;;;9.27;2.53;;;;;;;-145.69;100.00;72156.63;5074416;28;20649;-76
2022/09/18 05:43:15;;;;;;;4.93;1.70;;;;;;;-145.69;100.00;72154.63;5074255;28;20210;-76
2022/09/18 05:45:41;;;;;;;5.07;1.60;;;;;;;-145.69;100.00;72152.66;5091527;28;20206;-76
2022/09/18 05:48:08;;;;;;;6.67;2.07;;;;;;;-145.69;100.00;72160.59;5094630;28;20198;-77
2022/09/18 05:50:36;;;;;;;3.50;1.60;;;;;;;-145.69;100.00;72158.63;5094216;28;20237;-76
2022/09/18 05:53:05;;;;;;;2.53;1.03;;;;;;;-145.69;100.00;72146.69;5094468;28;20202;-76
2022/09/18 05:55:32;;;;;;;7.80;1.57;;;;;;;-145.69;100.00;72142.69;5092729;28;20222;-76
2022/09/18 05:58:01;;;;;;;6.03;1.30;;;;;;;-145.69;100.00;72138.72;5078694;28;20672;-77
2022/09/18 06:00:30;;;;;;;3.43;1.60;;;;;;;-145.69;100.00;72144.69;5094494;28;20202;-77
2022/09/18 06:02:59;;;;;;;5.43;1.33;;;;;;;-145.69;100.00;72140.69;5094211;28;20561;-76
2022/09/18 06:05:26;;;;;;;7.90;1.47;;;;;;;-145.69;100.00;72138.72;5090980;28;20198;-76
2022/09/18 06:07:53;;;;;;;5.03;1.67;;;;;;;-145.69;100.00;72134.72;5073981;28;20222;-76
2022/09/18 06:10:22;;;;;;;8.60;1.30;;;;;;;-145.69;100.00;72144.69;5073659;28;20206;-77
2022/09/18 06:12:49;;;;;;;8.67;1.20;;;;;;;-145.69;100.00;72142.69;5073660;28;20546;-77
2022/09/18 06:15:16;;;;;;;4.50;1.47;;;;;;;-145.69;100.00;72142.69;5074392;28;20226;-76
2022/09/18 06:17:42;;;;;;;5.53;1.27;;;;;;;-145.69;100.00;72134.72;5094125;28;20233;-79
2022/09/18 06:20:10;;;;;;;8.50;1.43;;;;;;;-145.69;100.00;72138.72;5093629;28;20206;-78
2022/09/18 06:22:36;;;;;;;3.57;1.43;;;;;;;-145.69;100.00;72132.75;5093674;28;20277;-77
2022/09/18 06:25:03;;;;;;;6.67;1.30;;;;;;;-145.69;100.00;72142.69;5093899;28;20198;-75
2022/09/18 06:27:31;;;;;;;12.40;2.03;;;;;;;-145.69;100.00;72146.69;5090307;28;20199;-77
2022/09/18 06:29:58;;;;;;;11.80;1.63;;;;;;;-145.69;100.00;72136.72;5073083;28;20195;-77
2022/09/18 06:32:24;;;;;;;7.57;1.70;;;;;;;-145.69;100.00;72130.75;5073159;28;20204;-77
2022/09/18 06:34:51;;;;;;;5.37;0.97;;;;;;;-145.69;100.00;72132.75;5073146;28;20289;-78
2022/09/18 06:37:18;;;;;;;10.60;1.60;;;;;;;-145.69;100.00;72120.81;5073480;28;20195;-77
2022/09/18 06:39:44;;;;;;;4.43;1.73;;;;;;;-145.69;100.00;72102.88;5075662;28;20194;-77
2022/09/18 06:42:11;;;;;;;3.00;1.60;;;;;;;-145.69;100.00;72086.97;5093398;28;20568;-77
2022/09/18 06:44:38;;;;;;;7.87;2.20;;;;;;;-145.69;100.00;72073.03;5093429;28;20202;-78
2022/09/18 06:47:05;;;;;;;3.77;1.83;;;;;;;-145.69;100.00;72090.94;5093290;28;20789;-77
2022/09/18 06:49:31;;;;;;;4.63;1.53;;;;;;;-145.69;100.00;72092.94;5093424;28;20237;-79
2022/09/18 06:51:58;;;;;;;4.40;1.30;;;;;;;-145.69;100.00;72073.03;5090371;28;20198;-78
2022/09/18 06:54:24;;;;;;;8.00;1.50;;;;;;;-145.69;100.00;72075.03;5073076;28;20195;-77
2022/09/18 06:56:51;;;;;;;7.90;1.47;;;;;;;-145.69;100.00;72075.03;5072686;28;20233;-77
2022/09/18 06:59:18;;;;;;;6.57;1.80;;;;;;;-145.69;100.00;72069.06;5072910;28;20680;-76
2022/09/18 07:01:46;;;;;;;6.87;1.60;;;;;;;-145.69;100.00;72037.22;5073146;28;20213;-77
2022/09/18 07:04:13;;;;;;;2.77;1.30;;;;;;;-145.69;100.00;72015.31;5074159;28;20206;-77
2022/09/18 07:06:39;;;;;;;5.73;1.30;;;;;;;-145.69;100.00;72017.31;5093027;28;20202;-77
2022/09/18 07:09:06;;;;;;;3.10;1.30;;;;;;;-145.69;100.00;71991.44;5093220;28;20202;-79
2022/09/18 07:11:32;;;;;;;5.10;1.30;;;;;;;-145.69;100.00;71955.63;5093003;28;20198;-78
2022/09/18 07:13:59;;;;;;;8.83;1.30;;;;;;;-145.69;100.00;71983.47;5093178;28;20226;-78
2022/09/18 07:16:26;;;;;;;5.63;1.43;;;;;;;-145.69;100.00;72019.31;5069564;28;20697;-77
2022/09/18 07:18:53;;;;;;;6.63;1.00;;;;;;;-145.69;100.00;72003.38;5092639;28;20202;-76
2022/09/18 07:21:20;;;;;;;6.97;1.30;;;;;;;-145.69;100.00;72007.34;5092897;28;20213;-76
2022/09/18 07:23:46;;;;;;;4.43;1.30;;;;;;;-145.69;100.00;72003.38;5093021;28;20194;-76
2022/09/18 07:26:13;;;;;;;4.20;1.20;;;;;;;-145.69;100.00;72005.38;5092876;28;20202;-77
2022/09/18 07:28:39;;;;;;;5.03;1.17;;;;;;;-145.69;100.00;71979.50;5086371;28;20202;-77
2022/09/18 07:31:06;;;;;;;11.77;1.50;;;;;;;-145.69;100.00;71975.50;5072792;28;20203;-76
2022/09/18 07:33:34;;;;;;;5.13;1.00;;;;;;;-145.69;100.00;71981.50;5076423;28;20205;-80
2022/09/18 07:36:02;;;;;;;9.50;1.53;;;;;;;-145.69;100.00;71953.63;5076747;28;20230;-78
2022/09/18 07:38:29;;;;;;;5.17;1.10;;;;;;;-145.69;100.00;71967.56;5076202;28;20668;-78
2022/09/18 07:40:55;;;;;;;2.67;1.10;;;;;;;-145.69;100.00;71967.56;5084578;28;20209;-79
2022/09/18 07:43:22;;;;;;;5.30;1.30;;;;;;;-145.69;100.00;71977.50;5096985;28;20198;-76
2022/09/18 07:45:48;;;;;;;3.13;1.13;;;;;;;-145.69;100.00;71971.53;5096995;28;20201;-76
2022/09/18 07:48:15;;;;;;;4.70;1.20;;;;;;;-145.69;100.00;71969.53;5096908;28;20205;-75
2022/09/18 07:50:41;;;;;;;8.33;1.20;;;;;;;-145.69;100.00;71947.66;5096823;28;20284;-75
2022/09/18 07:53:09;;;;;;;12.53;1.37;;;;;;;-145.69;100.00;71941.69;5087663;28;20199;-74
2022/09/18 07:55:36;;;;;;;7.40;1.10;;;;;;;-145.69;100.00;71955.63;5076383;28;20222;-75
2022/09/18 07:58:05;;;;;;;9.30;1.23;;;;;;;-145.69;100.00;71947.66;5076344;28;20628;-74
2022/09/18 08:00:34;;;;;;;9.33;1.10;;;;;;;-145.69;100.00;71947.66;5076767;28;20202;-75
2022/09/18 08:03:02;;;;;;;4.27;0.90;;;;;;;-145.69;100.00;71941.69;5076213;28;20238;-74
2022/09/18 08:05:28;;;;;;;4.93;0.97;;;;;;;-145.69;100.00;71915.81;5084686;28;20190;-74
2022/09/18 08:07:54;;;;;;;5.40;1.13;;;;;;;-145.69;100.00;71941.69;5096598;28;20201;-76
2022/09/18 08:10:23;;;;;;;4.83;1.00;;;;;;;-145.69;100.00;71935.72;5096470;28;20202;-75
2022/09/18 08:12:53;;;;;;;4.07;1.30;;;;;;;-145.69;100.00;71937.69;5096173;28;20296;-75
2022/09/18 08:15:20;;;;;;;5.50;0.90;;;;;;;-145.69;100.00;71943.69;5096245;28;20537;-74
2022/09/18 08:17:46;;;;;;;5.33;1.10;;;;;;;-145.69;100.00;71951.63;5082124;28;20233;-75
2022/09/18 08:20:13;;;;;;;7.40;1.07;;;;;;;-145.69;100.00;71927.75;5076085;28;20545;-76
2022/09/18 08:22:40;;;;;;;2.30;0.77;;;;;;;-145.69;100.00;71923.78;5076124;28;20199;-75
2022/09/18 08:25:07;;;;;;;1.17;0.70;;;;;;;-145.69;100.00;71903.88;5075918;28;20210;-76
2022/09/18 08:27:37;;;;;;;2.60;0.80;;;;;;;-145.69;100.00;71923.78;5075801;28;20202;-75
2022/09/18 08:30:04;;;;;;;10.00;1.07;;;;;;;-145.69;100.00;71915.81;5091307;28;20666;-74
2022/09/18 08:32:31;;;;;;;3.73;1.00;;;;;;;-145.69;100.00;71903.88;5096170;28;20194;-74
2022/09/18 08:34:58;;;;;;;5.00;0.97;;;;;;;-145.69;100.00;71866.06;5095784;28;20659;-74
2022/09/18 08:37:25;;;;;;;3.60;0.90;;;;;;;-145.69;100.00;71842.19;5095922;28;20226;-74
2022/09/18 08:39:51;;;;;;;2.27;0.80;;;;;;;-145.69;100.00;71872.03;5095987;28;20201;-76
2022/09/18 08:42:31;;;;;;;3.63;0.77;;;;;;;-145.69;100.00;71893.91;5078716;28;20595;-75
2022/09/18 08:45:07;;;;;;;4.43;0.83;;;;;;;-145.69;100.00;71911.84;5075116;28;20203;-75
2022/09/18 08:47:39;;;;;;;1.03;0.70;;;;;;;-145.69;100.00;71935.72;5075452;28;20198;-75
2022/09/18 08:50:14;;;;;;;5.27;0.83;;;;;;;-145.69;100.00;71925.75;5075411;28;20223;-74
2022/09/18 08:52:48;;;;;;;2.40;0.73;;;;;;;-145.69;100.00;71923.78;5077413;28;20206;-76
2022/09/18 08:55:26;;;;;;;1.90;0.70;;;;;;;-145.69;100.00;71931.72;5095888;28;20201;-75
2022/09/18 08:57:56;;;;;;;2.87;0.80;;;;;;;-145.69;100.00;71951.63;5095540;28;20662;-76
2022/09/18 09:00:30;;;;;;;3.97;0.87;;;;;;;-145.69;100.00;71951.63;5093963;28;20201;-75
2022/09/18 09:03:03;;;;;;;2.57;0.80;;;;;;;-145.69;100.00;71907.84;5095128;28;20675;-75
2022/09/18 09:05:37;;;;;;;5.27;0.70;;;;;;;-145.69;100.00;71919.78;5095362;28;20206;-75
2022/09/18 09:08:30;;;;;;;2.47;0.70;;;;;;;-145.69;100.00;71923.78;5095957;28;20278;-76
2022/09/18 09:11:06;;;;;;;4.93;0.90;;;;;;;-145.69;100.00;71927.75;5089762;28;20206;-75
2022/09/18 09:14:06;;;;;;;6.87;1.03;;;;;;;-145.69;100.00;71897.91;5075091;28;20208;-76
2022/09/18 09:16:42;;;;;;;6.20;1.00;;;;;;;-145.69;100.00;71895.91;5050441;28;20227;-76
2022/09/18 09:19:26;;;;;;;3.83;0.80;;;;;;;-145.69;100.00;71893.91;5055052;28;20230;-76
2022/09/18 09:22:02;;;;;;;4.40;0.97;;;;;;;-145.69;100.00;71874.03;5054538;28;20273;-74
2022/09/18 09:24:31;;;;;;;4.33;1.13;;;;;;;-145.69;100.00;71846.16;5085584;28;20656;-76
2022/09/18 09:27:02;;;;;;;3.77;0.87;;;;;;;-145.69;100.00;71870.03;5095033;28;20762;-75
2022/09/18 09:29:33;;;;;;;3.30;1.00;;;;;;;-145.69;100.00;71852.13;5094615;28;20198;-75
2022/09/18 09:32:06;;;;;;;7.20;1.70;;;;;;;-145.69;100.00;71862.06;5094902;28;20202;-75
2022/09/18 09:34:39;;;;;;;7.57;0.90;;;;;;;-145.69;100.00;71820.28;5094597;28;20198;-75
2022/09/18 09:37:12;;;;;;;4.77;0.97;;;;;;;-145.69;100.00;71768.53;5074596;28;20631;-75
2022/09/18 09:39:44;;;;;;;8.47;0.80;;;;;;;-145.69;100.00;71784.47;5074678;28;20199;-75
2022/09/18 09:42:17;;;;;;;2.30;0.80;;;;;;;-145.69;100.00;71812.31;5074387;28;20203;-75
2022/09/18 09:44:51;;;;;;;5.27;0.93;;;;;;;-145.69;100.00;71804.38;5074516;28;20203;-75
2022/09/18 09:47:29;;;;;;;6.75;0.82;;;;;;;-145.69;100.00;71748.66;5076291;28;20670;-76
2022/09/18 09:50:05;;;;;;;7.17;0.80;;;;;;;-145.69;100.00;71712.81;5093905;28;20771;-75
2022/09/18 09:52:31;;;;;;;2.80;0.82;;;;;;;-145.69;100.00;71686.97;5094600;28;20198;-75
2022/09/18 09:55:08;;;;;;;3.17;0.73;;;;;;;-145.69;100.00;71692.94;5093987;28;20209;-76
2022/09/18 09:57:45;;;;;;;5.78;0.90;;;;;;;-145.69;98.43;71686.97;5094051;28;20368;-74
2022/09/18 10:00:16;;;;;;;6.80;1.02;;;;;;;-145.69;100.00;71690.94;5086684;28;20209;-74
2022/09/18 10:03:02;;;;;;;1.80;0.75;;;;;;;-145.69;99.90;71698.91;5074149;28;20213;-75
2022/09/18 10:05:35;;;;;;;1.92;0.77;;;;;;;-145.69;99.93;71675.00;5073996;28;20206;-75
2022/09/18 10:08:07;;;;;;;6.13;0.90;;;;;;;-145.69;100.00;71653.13;5073971;28;20695;-74
2022/09/18 10:10:39;;;;;;;9.02;1.77;;;;;;;-145.69;95.16;71639.19;5073912;28;20209;-74
2022/09/18 10:13:14;;;;;;;1.85;0.68;;;;;;;-145.69;93.07;71625.25;5074783;28;20261;-77
2022/09/18 10:15:43;;;;;;;7.32;1.20;;;;;;;-145.69;98.77;71653.13;5073784;28;20197;-73
2022/09/18 10:18:16;;;;;;;4.45;0.95;;;;;;;-145.69;92.92;71657.09;5073517;28;20222;-75
2022/09/18 10:20:45;;;;;;;3.25;0.90;;;;;;;-145.69;95.90;71657.09;5073967;28;20256;-74
2022/09/18 10:23:16;;;;;;;4.70;0.88;;;;;;;-145.69;96.07;71619.28;5073440;28;20195;-75
2022/09/18 10:25:48;;;;;;;4.20;0.80;;;;;;;-145.69;92.49;71680.97;5092707;28;20198;-75
2022/09/18 10:28:16;;;;;;;7.88;1.08;;;;;;;-145.69;96.79;71655.13;5093965;28;20199;-74
2022/09/18 10:30:54;;;;;;;3.25;0.95;;;;;;;-145.69;94.79;71653.13;5093633;28;20664;-76
2022/09/18 10:33:35;;;;;;;6.40;0.90;;;;;;;-145.69;94.32;71669.03;5093910;28;20208;-75
2022/09/18 10:36:14;;;;;;;6.63;1.10;;;;;;;-145.69;94.92;71633.22;5086965;28;20438;-74
2022/09/18 10:38:41;;;;;;;2.75;0.73;;;;;;;-145.69;90.30;71583.47;5073103;28;20414;-75
2022/09/18 10:41:35;;;;;;;7.22;0.90;;;;;;;-145.69;90.79;71591.44;5063467;28;20207;-75
2022/09/18 10:44:20;;;;;;;5.88;0.90;;;;;;;-145.69;87.12;71485.97;5053017;28;20200;-75
2022/09/18 10:46:53;;;;;;;2.40;0.82;;;;;;;-145.69;88.15;71601.38;5071804;28;20191;-74
2022/09/18 10:49:25;;;;;;;5.38;1.05;;;;;;;-145.69;87.75;71637.19;5068636;28;20222;-77
2022/09/18 10:52:15;;;;;;;8.63;0.90;;;;;;;-145.69;93.14;71690.94;5093432;28;20213;-76
2022/09/18 10:54:57;;;;;;;3.50;0.70;;;;;;;-145.69;94.28;71752.63;5093456;28;20538;-76
2022/09/18 10:57:27;;;;;;;4.68;0.70;;;;;;;-145.69;96.04;71744.66;5080402;28;20222;-76
2022/09/18 10:59:53;;;;;;;2.83;0.90;;;;;;;-145.69;94.25;71714.81;5068485;28;20218;-75
2022/09/18 11:02:21;;;;;;;1.33;0.90;;;;;;;-145.69;93.07;71684.97;5073406;28;20202;-76
2022/09/18 11:04:50;;;;;;;4.72;0.88;;;;;;;-145.69;92.03;71696.91;5070261;28;20210;-76
2022/09/18 11:07:17;;;;;;;1.55;0.70;;;;;;;-145.69;92.56;71673.03;5072084;28;20681;-76
2022/09/18 11:09:45;;;;;;;3.35;0.95;;;;;;;-145.69;91.69;71690.94;5065070;28;20237;-76
2022/09/18 11:12:16;;;;;;;7.03;0.90;;;;;;;-145.69;91.50;71627.25;5083084;28;20675;-76
2022/09/18 11:14:46;;;;;;;10.10;0.98;;;;;;;-145.69;92.90;71589.44;5092563;28;20201;-75
2022/09/18 11:17:23;;;;;;;4.93;0.95;;;;;;;-145.69;89.46;71553.63;5091283;28;20222;-76
2022/09/18 11:19:54;;;;;;;3.10;0.65;;;;;;;-145.69;90.44;71533.72;5092749;28;20811;-76
2022/09/18 11:22:33;;;;;;;3.30;1.17;;;;;;;-145.69;88.41;71557.59;5092936;28;20656;-76